Nearby METAR Reports

 

KMLP - Mullan Pass
Updated: Mon, 21-Oct-2019 11:53pm PDT
Fog, Overcast
Fog, Overcast
 Wind from SSW
Wind: SSW 8 mph , 13 km/h, Gust: 21 mph , 33 km/h
Temperature: 36°F , 2°C
Wind Chill: 30°F , -1°C
Dew Point: 30°F , -1°C
Humidity: 81%
Barometer: 30.14 inHg , 1020.7 hPa
Summary: Fog
Clouds: Overcast
Visibility: 1/4 mile , 0.4 km
Cloud details: Overcast 100 ft
2019/10/22 06:53 KMLP 220653Z AUTO 21007G18KT 1/4SM FG VV001 02/M01 A3014 RMK AO2 SNE03 SLP178 P0000 T00171006
KCOE - Coeur d Alene
Updated: Mon, 21-Oct-2019 11:56pm PDT
Rain, Overcast
Rain, Overcast
 Wind from S
Wind: S 7 mph , 11 km/h
Temperature: 45°F , 7°C
Wind Chill: 41°F , 5°C
Dew Point: 43°F , 6°C
Humidity: 93%
Barometer: 30.16 inHg , 1021.3 hPa
Summary: Rain
Clouds: Overcast
Visibility: 10 miles , 16 km
Cloud details: Overcast 2000 ft
2019/10/22 06:56 KCOE 220656Z AUTO 17006KT 10SM RA OVC020 07/06 A3016 RMK AO2 SLP241 P0004 T00720061
 
KLWS - Lewiston
Updated: Mon, 21-Oct-2019 11:56pm PDT
Light rain, Overcast
Light rain, Overcast
 Wind from calm
Wind: Calm
Temperature: 50°F , 10°C
Dew Point: 46°F , 8°C
Humidity: 88%
Barometer: 30.20 inHg , 1022.7 hPa
Summary: Light Rain
Clouds: Overcast
Visibility: 10 miles , 16 km
Cloud details: Overcast 6000 ft
2019/10/22 06:56 KLWS 220656Z AUTO 00000KT 10SM -RA OVC060 10/08 A3020 RMK AO2 SLP229 P0001 T01000078
KGEG - Spokane Intl
Updated: Mon, 21-Oct-2019 11:53pm PDT
Light rain, Mist, Overcast
Light rain, Mist, Overcast
 Wind from S
Wind: S 9 mph , 15 km/h
Temperature: 46°F , 8°C
Wind Chill: 41°F , 5°C
Dew Point: 45°F , 7°C
Humidity: 93%
Barometer: 30.14 inHg , 1020.7 hPa
Summary: Light rain, Mist
Clouds: Overcast
Visibility: 6 miles , 10 km
Cloud details: Mostly Cloudy 700 ft
Overcast 5500 ft
2019/10/22 06:53 KGEG 220653Z 19008KT 6SM -RA BR BKN007 OVC055 08/07 A3014 RMK AO2 RAB0556 SLP214 P0002 T00830067